sensor_id;sensor_type;location;lat;lon;timestamp;temperature;humidity
27797;DHT22;15177;50.844;4.412;2022-12-18T00:01:45;-1.20;99.90
27797;DHT22;15177;50.844;4.412;2022-12-18T00:04:18;-1.00;99.90
27797;DHT22;15177;50.844;4.412;2022-12-18T00:06:45;-1.30;99.90
27797;DHT22;15177;50.844;4.412;2022-12-18T00:09:10;-1.40;99.90
27797;DHT22;15177;50.844;4.412;2022-12-18T00:11:36;-1.50;99.90
27797;DHT22;15177;50.844;4.412;2022-12-18T00:14:02;-1.50;99.90
27797;DHT22;15177;50.844;4.412;2022-12-18T00:16:28;-1.40;99.90
27797;DHT22;15177;50.844;4.412;2022-12-18T00:18:56;-1.30;99.90
27797;DHT22;15177;50.844;4.412;2022-12-18T00:21:22;-1.20;99.90
27797;DHT22;15177;50.844;4.412;2022-12-18T00:23:49;-1.30;99.90
27797;DHT22;15177;50.844;4.412;2022-12-18T00:26:24;-1.50;99.90
27797;DHT22;15177;50.844;4.412;2022-12-18T00:28:50;-1.60;99.90
27797;DHT22;15177;50.844;4.412;2022-12-18T00:31:19;-1.70;99.90
27797;DHT22;15177;50.844;4.412;2022-12-18T00:33:45;-1.70;99.90
27797;DHT22;15177;50.844;4.412;2022-12-18T00:36:13;-1.80;99.90
27797;DHT22;15177;50.844;4.412;2022-12-18T00:38:39;-1.80;99.90
27797;DHT22;15177;50.844;4.412;2022-12-18T00:41:06;-2.00;99.90
27797;DHT22;15177;50.844;4.412;2022-12-18T00:43:32;-2.00;99.90
27797;DHT22;15177;50.844;4.412;2022-12-18T00:45:58;-2.00;99.90
27797;DHT22;15177;50.844;4.412;2022-12-18T00:48:24;-2.00;99.90
27797;DHT22;15177;50.844;4.412;2022-12-18T00:50:50;-1.90;99.90
27797;DHT22;15177;50.844;4.412;2022-12-18T00:53:16;-1.80;99.90
27797;DHT22;15177;50.844;4.412;2022-12-18T00:55:43;-1.70;99.90
27797;DHT22;15177;50.844;4.412;2022-12-18T00:58:10;-1.60;99.90
27797;DHT22;15177;50.844;4.412;2022-12-18T01:00:36;-1.70;99.90
27797;DHT22;15177;50.844;4.412;2022-12-18T01:03:03;-1.70;99.90
27797;DHT22;15177;50.844;4.412;2022-12-18T01:05:29;-1.70;99.90
27797;DHT22;15177;50.844;4.412;2022-12-18T01:07:56;-1.90;99.90
27797;DHT22;15177;50.844;4.412;2022-12-18T01:10:23;-1.80;99.90
27797;DHT22;15177;50.844;4.412;2022-12-18T01:12:48;-2.00;99.90
27797;DHT22;15177;50.844;4.412;2022-12-18T01:15:15;-1.90;99.90
27797;DHT22;15177;50.844;4.412;2022-12-18T01:17:41;-2.00;99.90
27797;DHT22;15177;50.844;4.412;2022-12-18T01:20:08;-1.90;99.90
27797;DHT22;15177;50.844;4.412;2022-12-18T01:22:35;-2.00;99.90
27797;DHT22;15177;50.844;4.412;2022-12-18T01:25:01;-2.10;99.90
27797;DHT22;15177;50.844;4.412;2022-12-18T01:27:26;-2.00;99.90
27797;DHT22;15177;50.844;4.412;2022-12-18T01:29:52;-2.00;99.90
27797;DHT22;15177;50.844;4.412;2022-12-18T01:32:18;-2.00;99.90
27797;DHT22;15177;50.844;4.412;2022-12-18T01:34:43;-2.00;99.90
27797;DHT22;15177;50.844;4.412;2022-12-18T01:37:09;-1.90;99.90
27797;DHT22;15177;50.844;4.412;2022-12-18T01:39:36;-1.90;99.90
27797;DHT22;15177;50.844;4.412;2022-12-18T01:42:11;-1.80;99.90
27797;DHT22;15177;50.844;4.412;2022-12-18T01:48:26;-2.00;99.90
27797;DHT22;15177;50.844;4.412;2022-12-18T01:50:27;-2.00;99.90
27797;DHT22;15177;50.844;4.412;2022-12-18T01:52:55;-2.00;99.90
27797;DHT22;15177;50.844;4.412;2022-12-18T01:55:27;-2.00;99.90
27797;DHT22;15177;50.844;4.412;2022-12-18T01:57:56;-2.00;99.90
27797;DHT22;15177;50.844;4.412;2022-12-18T02:00:25;-2.10;99.90
27797;DHT22;15177;50.844;4.412;2022-12-18T02:02:52;-2.00;99.90
27797;DHT22;15177;50.844;4.412;2022-12-18T02:05:34;-2.00;99.90
27797;DHT22;15177;50.844;4.412;2022-12-18T02:08:12;-1.90;99.90
27797;DHT22;15177;50.844;4.412;2022-12-18T02:13:36;-1.70;99.90
27797;DHT22;15177;50.844;4.412;2022-12-18T02:18:36;-1.90;99.90
27797;DHT22;15177;50.844;4.412;2022-12-18T02:24:57;-1.90;99.90
27797;DHT22;15177;50.844;4.412;2022-12-18T02:27:05;-1.90;99.90
27797;DHT22;15177;50.844;4.412;2022-12-18T02:29:51;-1.90;99.90
27797;DHT22;15177;50.844;4.412;2022-12-18T02:32:22;-1.90;99.90
27797;DHT22;15177;50.844;4.412;2022-12-18T02:34:50;-1.90;99.90
27797;DHT22;15177;50.844;4.412;2022-12-18T02:37:18;-2.00;99.90
27797;DHT22;15177;50.844;4.412;2022-12-18T02:39:47;-2.10;99.90
27797;DHT22;15177;50.844;4.412;2022-12-18T02:42:13;-2.00;99.90
27797;DHT22;15177;50.844;4.412;2022-12-18T02:44:50;-2.00;99.90
27797;DHT22;15177;50.844;4.412;2022-12-18T02:47:18;-2.10;99.90
27797;DHT22;15177;50.844;4.412;2022-12-18T02:52:43;-1.80;99.90
27797;DHT22;15177;50.844;4.412;2022-12-18T02:58:02;-2.40;99.90
27797;DHT22;15177;50.844;4.412;2022-12-18T03:00:43;-2.50;99.90
27797;DHT22;15177;50.844;4.412;2022-12-18T03:03:22;-2.30;99.90
27797;DHT22;15177;50.844;4.412;2022-12-18T03:08:28;-2.50;99.90
27797;DHT22;15177;50.844;4.412;2022-12-18T03:11:12;-2.50;99.90
27797;DHT22;15177;50.844;4.412;2022-12-18T03:13:46;-2.50;99.90
27797;DHT22;15177;50.844;4.412;2022-12-18T03:16:26;-2.40;99.90
27797;DHT22;15177;50.844;4.412;2022-12-18T03:19:07;-2.20;99.90
27797;DHT22;15177;50.844;4.412;2022-12-18T03:21:47;-2.30;99.90
27797;DHT22;15177;50.844;4.412;2022-12-18T03:24:15;-2.30;99.90
27797;DHT22;15177;50.844;4.412;2022-12-18T03:26:45;-2.40;99.90
27797;DHT22;15177;50.844;4.412;2022-12-18T03:32:07;-2.50;99.90
27797;DHT22;15177;50.844;4.412;2022-12-18T03:34:37;-2.50;99.90
27797;DHT22;15177;50.844;4.412;2022-12-18T03:37:05;-2.50;99.90
27797;DHT22;15177;50.844;4.412;2022-12-18T03:39:31;-2.40;99.90
27797;DHT22;15177;50.844;4.412;2022-12-18T03:47:34;-2.60;99.90
27797;DHT22;15177;50.844;4.412;2022-12-18T03:52:49;-2.80;99.90
27797;DHT22;15177;50.844;4.412;2022-12-18T03:55:16;-2.90;99.90
27797;DHT22;15177;50.844;4.412;2022-12-18T03:57:44;-2.90;99.90
27797;DHT22;15177;50.844;4.412;2022-12-18T04:00:13;-2.80;99.90
27797;DHT22;15177;50.844;4.412;2022-12-18T04:02:44;-2.90;99.90
27797;DHT22;15177;50.844;4.412;2022-12-18T04:05:12;-2.90;99.90
27797;DHT22;15177;50.844;4.412;2022-12-18T04:07:41;-2.80;99.90
27797;DHT22;15177;50.844;4.412;2022-12-18T04:10:09;-2.90;99.90
27797;DHT22;15177;50.844;4.412;2022-12-18T04:12:37;-2.90;99.90
27797;DHT22;15177;50.844;4.412;2022-12-18T04:15:03;-3.00;99.90
27797;DHT22;15177;50.844;4.412;2022-12-18T04:17:30;-2.90;99.90
27797;DHT22;15177;50.844;4.412;2022-12-18T04:19:55;-2.80;99.90
27797;DHT22;15177;50.844;4.412;2022-12-18T04:22:21;-2.80;99.90
27797;DHT22;15177;50.844;4.412;2022-12-18T04:24:47;-2.90;99.90
27797;DHT22;15177;50.844;4.412;2022-12-18T04:27:13;-2.80;99.90
27797;DHT22;15177;50.844;4.412;2022-12-18T04:29:41;-2.80;99.90
27797;DHT22;15177;50.844;4.412;2022-12-18T04:32:07;-2.80;99.90
27797;DHT22;15177;50.844;4.412;2022-12-18T04:34:33;-2.70;99.90
27797;DHT22;15177;50.844;4.412;2022-12-18T04:36:59;-2.70;99.90
27797;DHT22;15177;50.844;4.412;2022-12-18T04:39:24;-2.60;99.90
27797;DHT22;15177;50.844;4.412;2022-12-18T04:41:50;-2.50;99.90
27797;DHT22;15177;50.844;4.412;2022-12-18T04:44:16;-2.50;99.90
27797;DHT22;15177;50.844;4.412;2022-12-18T04:46:42;-2.50;99.90
27797;DHT22;15177;50.844;4.412;2022-12-18T04:49:09;-2.50;99.90
27797;DHT22;15177;50.844;4.412;2022-12-18T04:51:37;-2.70;99.90
27797;DHT22;15177;50.844;4.412;2022-12-18T04:54:02;-2.80;99.90
27797;DHT22;15177;50.844;4.412;2022-12-18T04:56:30;-2.80;99.90
27797;DHT22;15177;50.844;4.412;2022-12-18T04:58:55;-2.80;99.90
27797;DHT22;15177;50.844;4.412;2022-12-18T05:01:21;-2.80;99.90
27797;DHT22;15177;50.844;4.412;2022-12-18T05:03:47;-2.90;99.90
27797;DHT22;15177;50.844;4.412;2022-12-18T05:06:13;-2.80;99.90
27797;DHT22;15177;50.844;4.412;2022-12-18T05:08:38;-2.80;99.90
27797;DHT22;15177;50.844;4.412;2022-12-18T05:11:10;-2.80;99.90
27797;DHT22;15177;50.844;4.412;2022-12-18T05:13:36;-2.60;99.90
27797;DHT22;15177;50.844;4.412;2022-12-18T05:16:03;-2.70;99.90
27797;DHT22;15177;50.844;4.412;2022-12-18T05:18:30;-2.80;99.90
27797;DHT22;15177;50.844;4.412;2022-12-18T05:20:56;-2.50;99.90
27797;DHT22;15177;50.844;4.412;2022-12-18T05:23:24;-2.50;99.90
27797;DHT22;15177;50.844;4.412;2022-12-18T05:26:08;-2.50;99.90
27797;DHT22;15177;50.844;4.412;2022-12-18T05:28:36;-2.60;99.90
27797;DHT22;15177;50.844;4.412;2022-12-18T05:31:04;-2.70;99.90
27797;DHT22;15177;50.844;4.412;2022-12-18T05:33:32;-2.90;99.90
27797;DHT22;15177;50.844;4.412;2022-12-18T05:36:04;-3.00;99.90
27797;DHT22;15177;50.844;4.412;2022-12-18T05:38:32;-3.00;99.90
27797;DHT22;15177;50.844;4.412;2022-12-18T05:41:04;-2.80;99.90
27797;DHT22;15177;50.844;4.412;2022-12-18T05:43:34;-2.80;99.90
27797;DHT22;15177;50.844;4.412;2022-12-18T05:46:10;-2.90;99.90
27797;DHT22;15177;50.844;4.412;2022-12-18T05:48:38;-2.90;99.90
27797;DHT22;15177;50.844;4.412;2022-12-18T05:51:08;-2.90;99.90
27797;DHT22;15177;50.844;4.412;2022-12-18T05:53:35;-3.10;99.90
27797;DHT22;15177;50.844;4.412;2022-12-18T05:56:03;-3.10;99.90
27797;DHT22;15177;50.844;4.412;2022-12-18T05:58:30;-3.00;99.90
27797;DHT22;15177;50.844;4.412;2022-12-18T06:00:57;-2.80;99.90
27797;DHT22;15177;50.844;4.412;2022-12-18T06:03:23;-2.80;99.90
27797;DHT22;15177;50.844;4.412;2022-12-18T06:05:49;-2.60;99.90
27797;DHT22;15177;50.844;4.412;2022-12-18T06:08:15;-2.50;99.90
27797;DHT22;15177;50.844;4.412;2022-12-18T06:10:41;-2.40;99.90
27797;DHT22;15177;50.844;4.412;2022-12-18T06:13:07;-2.50;99.90
27797;DHT22;15177;50.844;4.412;2022-12-18T06:15:36;-2.50;99.90
27797;DHT22;15177;50.844;4.412;2022-12-18T06:18:03;-2.60;99.90
27797;DHT22;15177;50.844;4.412;2022-12-18T06:20:29;-2.50;99.90
27797;DHT22;15177;50.844;4.412;2022-12-18T06:22:54;-2.60;99.90
27797;DHT22;15177;50.844;4.412;2022-12-18T06:25:20;-2.50;99.90
27797;DHT22;15177;50.844;4.412;2022-12-18T06:27:47;-2.50;99.90
27797;DHT22;15177;50.844;4.412;2022-12-18T06:30:13;-2.40;99.90
27797;DHT22;15177;50.844;4.412;2022-12-18T06:32:39;-2.70;99.90
27797;DHT22;15177;50.844;4.412;2022-12-18T06:35:06;-2.70;99.90
27797;DHT22;15177;50.844;4.412;2022-12-18T06:37:32;-2.80;99.90
27797;DHT22;15177;50.844;4.412;2022-12-18T06:39:57;-2.80;99.90
27797;DHT22;15177;50.844;4.412;2022-12-18T06:42:23;-2.70;99.90
27797;DHT22;15177;50.844;4.412;2022-12-18T06:44:49;-2.70;99.90
27797;DHT22;15177;50.844;4.412;2022-12-18T06:47:15;-2.70;99.90
27797;DHT22;15177;50.844;4.412;2022-12-18T06:49:41;-2.70;99.90
27797;DHT22;15177;50.844;4.412;2022-12-18T06:52:06;-2.70;99.90
27797;DHT22;15177;50.844;4.412;2022-12-18T06:54:32;-2.70;99.90
27797;DHT22;15177;50.844;4.412;2022-12-18T06:56:58;-2.80;99.90
27797;DHT22;15177;50.844;4.412;2022-12-18T06:59:23;-2.90;99.90
27797;DHT22;15177;50.844;4.412;2022-12-18T07:01:49;-3.00;99.90
27797;DHT22;15177;50.844;4.412;2022-12-18T07:04:14;-3.10;99.90
27797;DHT22;15177;50.844;4.412;2022-12-18T07:06:41;-3.10;99.90
27797;DHT22;15177;50.844;4.412;2022-12-18T07:09:07;-3.00;99.90
27797;DHT22;15177;50.844;4.412;2022-12-18T07:11:33;-3.00;99.90
27797;DHT22;15177;50.844;4.412;2022-12-18T07:13:59;-2.90;99.90
27797;DHT22;15177;50.844;4.412;2022-12-18T07:16:25;-2.80;99.90
27797;DHT22;15177;50.844;4.412;2022-12-18T07:18:52;-2.80;99.90
27797;DHT22;15177;50.844;4.412;2022-12-18T07:21:19;-2.70;99.90
27797;DHT22;15177;50.844;4.412;2022-12-18T07:23:45;-2.70;99.90
27797;DHT22;15177;50.844;4.412;2022-12-18T07:26:14;-2.80;99.90
27797;DHT22;15177;50.844;4.412;2022-12-18T07:28:41;-2.80;99.90
27797;DHT22;15177;50.844;4.412;2022-12-18T07:31:10;-2.80;99.90
27797;DHT22;15177;50.844;4.412;2022-12-18T07:33:36;-2.80;99.90
27797;DHT22;15177;50.844;4.412;2022-12-18T07:36:04;-2.80;99.90
27797;DHT22;15177;50.844;4.412;2022-12-18T07:38:31;-2.90;99.90
27797;DHT22;15177;50.844;4.412;2022-12-18T07:41:06;-2.90;99.90
27797;DHT22;15177;50.844;4.412;2022-12-18T07:43:32;-2.80;99.90
27797;DHT22;15177;50.844;4.412;2022-12-18T07:45:59;-2.90;99.90
27797;DHT22;15177;50.844;4.412;2022-12-18T07:48:25;-2.80;99.90
27797;DHT22;15177;50.844;4.412;2022-12-18T07:50:51;-2.80;99.90
27797;DHT22;15177;50.844;4.412;2022-12-18T07:53:16;-2.80;99.90
27797;DHT22;15177;50.844;4.412;2022-12-18T07:55:42;-2.80;99.90
27797;DHT22;15177;50.844;4.412;2022-12-18T07:58:08;-2.70;99.90
27797;DHT22;15177;50.844;4.412;2022-12-18T08:00:34;-2.60;99.90
27797;DHT22;15177;50.844;4.412;2022-12-18T08:03:01;-2.50;99.90
27797;DHT22;15177;50.844;4.412;2022-12-18T08:05:27;-2.20;99.90
27797;DHT22;15177;50.844;4.412;2022-12-18T08:07:53;-2.30;99.90
27797;DHT22;15177;50.844;4.412;2022-12-18T08:10:20;-2.30;99.90
27797;DHT22;15177;50.844;4.412;2022-12-18T08:12:49;-2.30;99.90
27797;DHT22;15177;50.844;4.412;2022-12-18T08:15:15;-2.20;99.90
27797;DHT22;15177;50.844;4.412;2022-12-18T08:17:40;-2.20;99.90
27797;DHT22;15177;50.844;4.412;2022-12-18T08:20:08;-2.20;99.90
27797;DHT22;15177;50.844;4.412;2022-12-18T08:22:34;-2.20;99.90
27797;DHT22;15177;50.844;4.412;2022-12-18T08:25:03;-2.10;99.90
27797;DHT22;15177;50.844;4.412;2022-12-18T08:27:29;-2.10;99.90
27797;DHT22;15177;50.844;4.412;2022-12-18T08:29:55;-2.00;99.90
27797;DHT22;15177;50.844;4.412;2022-12-18T08:32:20;-1.90;99.90
27797;DHT22;15177;50.844;4.412;2022-12-18T08:34:46;-1.80;99.90
27797;DHT22;15177;50.844;4.412;2022-12-18T08:37:11;-1.50;99.90
27797;DHT22;15177;50.844;4.412;2022-12-18T08:39:37;-1.30;99.90
27797;DHT22;15177;50.844;4.412;2022-12-18T08:42:03;-1.40;99.90
27797;DHT22;15177;50.844;4.412;2022-12-18T08:44:47;-1.40;99.90
27797;DHT22;15177;50.844;4.412;2022-12-18T08:47:13;-1.30;99.90
27797;DHT22;15177;50.844;4.412;2022-12-18T08:49:39;-1.40;99.90
27797;DHT22;15177;50.844;4.412;2022-12-18T08:52:04;-1.30;99.90
27797;DHT22;15177;50.844;4.412;2022-12-18T08:54:30;-1.30;99.90
27797;DHT22;15177;50.844;4.412;2022-12-18T08:56:56;-1.30;99.90
27797;DHT22;15177;50.844;4.412;2022-12-18T08:59:21;-1.20;99.90
27797;DHT22;15177;50.844;4.412;2022-12-18T09:01:48;-1.20;99.90
27797;DHT22;15177;50.844;4.412;2022-12-18T09:04:14;-1.20;99.90
27797;DHT22;15177;50.844;4.412;2022-12-18T09:06:40;-1.20;99.90
27797;DHT22;15177;50.844;4.412;2022-12-18T09:09:06;-1.20;99.90
27797;DHT22;15177;50.844;4.412;2022-12-18T09:11:32;-1.20;99.90
27797;DHT22;15177;50.844;4.412;2022-12-18T09:14:00;-1.10;99.90
27797;DHT22;15177;50.844;4.412;2022-12-18T09:16:27;-1.00;99.90
27797;DHT22;15177;50.844;4.412;2022-12-18T09:18:54;-1.00;99.90
27797;DHT22;15177;50.844;4.412;2022-12-18T09:21:25;-0.90;99.90
27797;DHT22;15177;50.844;4.412;2022-12-18T09:23:52;-0.90;99.90
27797;DHT22;15177;50.844;4.412;2022-12-18T09:26:18;-0.90;99.90
27797;DHT22;15177;50.844;4.412;2022-12-18T09:28:44;-0.80;99.90
27797;DHT22;15177;50.844;4.412;2022-12-18T09:31:11;-0.40;99.90
27797;DHT22;15177;50.844;4.412;2022-12-18T09:33:38;-0.50;99.90
27797;DHT22;15177;50.844;4.412;2022-12-18T09:36:05;-0.40;99.90
27797;DHT22;15177;50.844;4.412;2022-12-18T09:38:32;-0.20;99.90
27797;DHT22;15177;50.844;4.412;2022-12-18T09:41:05;-0.20;99.90
27797;DHT22;15177;50.844;4.412;2022-12-18T09:43:46;0.10;99.90
27797;DHT22;15177;50.844;4.412;2022-12-18T09:46:21;-0.30;99.90
27797;DHT22;15177;50.844;4.412;2022-12-18T09:48:52;-0.50;99.90
27797;DHT22;15177;50.844;4.412;2022-12-18T09:51:24;-0.60;99.90
27797;DHT22;15177;50.844;4.412;2022-12-18T09:53:58;-0.40;99.90
27797;DHT22;15177;50.844;4.412;2022-12-18T09:56:28;-0.60;99.90
27797;DHT22;15177;50.844;4.412;2022-12-18T09:58:58;-0.60;99.90
27797;DHT22;15177;50.844;4.412;2022-12-18T10:01:25;-0.70;99.90
27797;DHT22;15177;50.844;4.412;2022-12-18T10:03:52;-0.60;99.90
27797;DHT22;15177;50.844;4.412;2022-12-18T10:11:37;-0.30;99.90
27797;DHT22;15177;50.844;4.412;2022-12-18T10:27:33;-0.40;99.90
27797;DHT22;15177;50.844;4.412;2022-12-18T10:30:01;-0.20;99.90
27797;DHT22;15177;50.844;4.412;2022-12-18T10:32:30;0.00;99.90
27797;DHT22;15177;50.844;4.412;2022-12-18T10:34:57;0.00;99.90
27797;DHT22;15177;50.844;4.412;2022-12-18T10:37:27;0.20;99.90
27797;DHT22;15177;50.844;4.412;2022-12-18T10:42:37;-0.10;99.90
27797;DHT22;15177;50.844;4.412;2022-12-18T10:45:21;-0.10;99.90
27797;DHT22;15177;50.844;4.412;2022-12-18T10:47:48;0.30;99.90
27797;DHT22;15177;50.844;4.412;2022-12-18T10:50:26;0.30;99.90
27797;DHT22;15177;50.844;4.412;2022-12-18T10:52:58;0.40;99.90
27797;DHT22;15177;50.844;4.412;2022-12-18T10:55:31;0.40;99.90
27797;DHT22;15177;50.844;4.412;2022-12-18T10:58:24;0.50;99.90
27797;DHT22;15177;50.844;4.412;2022-12-18T11:01:12;0.70;99.90
27797;DHT22;15177;50.844;4.412;2022-12-18T11:03:44;1.00;99.90
27797;DHT22;15177;50.844;4.412;2022-12-18T11:06:16;1.20;99.90
27797;DHT22;15177;50.844;4.412;2022-12-18T11:08:43;1.20;99.90
27797;DHT22;15177;50.844;4.412;2022-12-18T11:11:28;1.40;99.90
27797;DHT22;15177;50.844;4.412;2022-12-18T11:13:58;1.60;99.90
27797;DHT22;15177;50.844;4.412;2022-12-18T11:16:26;1.60;99.90
27797;DHT22;15177;50.844;4.412;2022-12-18T11:18:53;1.80;99.90
27797;DHT22;15177;50.844;4.412;2022-12-18T11:21:19;2.00;99.90
27797;DHT22;15177;50.844;4.412;2022-12-18T11:23:52;2.20;99.90
27797;DHT22;15177;50.844;4.412;2022-12-18T11:26:18;2.40;99.90
27797;DHT22;15177;50.844;4.412;2022-12-18T11:28:50;2.40;99.90
27797;DHT22;15177;50.844;4.412;2022-12-18T11:36:26;1.90;99.90
27797;DHT22;15177;50.844;4.412;2022-12-18T11:38:55;2.00;99.90
27797;DHT22;15177;50.844;4.412;2022-12-18T11:44:32;2.30;99.90
27797;DHT22;15177;50.844;4.412;2022-12-18T11:47:03;2.20;99.90
27797;DHT22;15177;50.844;4.412;2022-12-18T11:49:35;2.20;99.90
27797;DHT22;15177;50.844;4.412;2022-12-18T11:54:45;2.00;99.90
27797;DHT22;15177;50.844;4.412;2022-12-18T12:00:16;1.80;99.90
27797;DHT22;15177;50.844;4.412;2022-12-18T12:03:20;2.00;99.90
27797;DHT22;15177;50.844;4.412;2022-12-18T12:06:14;2.00;99.90
27797;DHT22;15177;50.844;4.412;2022-12-18T12:08:57;1.90;99.90
27797;DHT22;15177;50.844;4.412;2022-12-18T12:14:39;2.00;99.90
27797;DHT22;15177;50.844;4.412;2022-12-18T12:23:05;2.10;99.90
27797;DHT22;15177;50.844;4.412;2022-12-18T12:28:51;2.30;99.90
27797;DHT22;15177;50.844;4.412;2022-12-18T12:31:28;2.40;99.90
27797;DHT22;15177;50.844;4.412;2022-12-18T12:37:02;2.40;99.90
27797;DHT22;15177;50.844;4.412;2022-12-18T12:39:35;2.60;99.90
27797;DHT22;15177;50.844;4.412;2022-12-18T12:42:10;2.70;99.90
27797;DHT22;15177;50.844;4.412;2022-12-18T12:44:58;2.70;99.90
27797;DHT22;15177;50.844;4.412;2022-12-18T12:47:33;2.70;99.90
27797;DHT22;15177;50.844;4.412;2022-12-18T12:50:04;2.80;99.90
27797;DHT22;15177;50.844;4.412;2022-12-18T12:52:38;2.70;99.90
27797;DHT22;15177;50.844;4.412;2022-12-18T12:55:17;2.60;99.90
27797;DHT22;15177;50.844;4.412;2022-12-18T13:00:21;2.50;99.90
27797;DHT22;15177;50.844;4.412;2022-12-18T13:05:43;2.70;99.90
27797;DHT22;15177;50.844;4.412;2022-12-18T13:08:22;2.90;99.90
27797;DHT22;15177;50.844;4.412;2022-12-18T13:10:48;3.00;99.90
27797;DHT22;15177;50.844;4.412;2022-12-18T13:13:15;2.70;99.90
27797;DHT22;15177;50.844;4.412;2022-12-18T13:18:17;2.60;99.90
27797;DHT22;15177;50.844;4.412;2022-12-18T13:23:36;2.80;99.90
27797;DHT22;15177;50.844;4.412;2022-12-18T13:34:18;2.90;99.90
27797;DHT22;15177;50.844;4.412;2022-12-18T13:36:46;2.90;99.90
27797;DHT22;15177;50.844;4.412;2022-12-18T13:41:49;2.50;99.90
27797;DHT22;15177;50.844;4.412;2022-12-18T13:46:50;2.50;99.90
27797;DHT22;15177;50.844;4.412;2022-12-18T13:51:54;2.70;99.90
27797;DHT22;15177;50.844;4.412;2022-12-18T13:54:39;2.60;99.90
27797;DHT22;15177;50.844;4.412;2022-12-18T13:57:11;2.70;99.90
27797;DHT22;15177;50.844;4.412;2022-12-18T13:59:50;2.90;99.90
27797;DHT22;15177;50.844;4.412;2022-12-18T14:02:21;3.00;99.90
27797;DHT22;15177;50.844;4.412;2022-12-18T14:04:48;2.50;99.90
27797;DHT22;15177;50.844;4.412;2022-12-18T14:07:22;2.60;99.90
27797;DHT22;15177;50.844;4.412;2022-12-18T14:09:59;2.60;99.90
27797;DHT22;15177;50.844;4.412;2022-12-18T14:12:33;2.50;99.90
27797;DHT22;15177;50.844;4.412;2022-12-18T14:20:43;2.50;99.90
27797;DHT22;15177;50.844;4.412;2022-12-18T14:23:38;2.40;99.90
27797;DHT22;15177;50.844;4.412;2022-12-18T14:26:26;2.40;99.90
27797;DHT22;15177;50.844;4.412;2022-12-18T14:28:58;2.50;99.90
27797;DHT22;15177;50.844;4.412;2022-12-18T14:31:28;2.50;99.90
27797;DHT22;15177;50.844;4.412;2022-12-18T14:33:54;2.40;99.90
27797;DHT22;15177;50.844;4.412;2022-12-18T14:36:28;2.50;99.90
27797;DHT22;15177;50.844;4.412;2022-12-18T14:38:59;2.60;99.90
27797;DHT22;15177;50.844;4.412;2022-12-18T14:41:26;2.60;99.90
27797;DHT22;15177;50.844;4.412;2022-12-18T14:43:53;2.60;99.90
27797;DHT22;15177;50.844;4.412;2022-12-18T14:46:39;2.60;99.90
27797;DHT22;15177;50.844;4.412;2022-12-18T14:49:30;2.40;99.90
27797;DHT22;15177;50.844;4.412;2022-12-18T14:52:02;2.30;99.90
27797;DHT22;15177;50.844;4.412;2022-12-18T14:54:30;2.20;99.90
27797;DHT22;15177;50.844;4.412;2022-12-18T14:57:23;2.20;99.90
27797;DHT22;15177;50.844;4.412;2022-12-18T14:59:49;2.30;99.90
27797;DHT22;15177;50.844;4.412;2022-12-18T15:02:25;2.30;99.90
27797;DHT22;15177;50.844;4.412;2022-12-18T15:05:03;2.20;99.90
27797;DHT22;15177;50.844;4.412;2022-12-18T15:07:43;1.90;99.90
27797;DHT22;15177;50.844;4.412;2022-12-18T15:12:44;2.10;99.90
27797;DHT22;15177;50.844;4.412;2022-12-18T15:20:40;2.00;99.90
27797;DHT22;15177;50.844;4.412;2022-12-18T15:23:29;2.20;99.90
27797;DHT22;15177;50.844;4.412;2022-12-18T15:25:57;2.20;99.90
27797;DHT22;15177;50.844;4.412;2022-12-18T15:28:26;2.00;99.90
27797;DHT22;15177;50.844;4.412;2022-12-18T15:33:27;1.90;99.90
27797;DHT22;15177;50.844;4.412;2022-12-18T15:36:09;1.90;99.90
27797;DHT22;15177;50.844;4.412;2022-12-18T15:38:35;1.90;99.90
27797;DHT22;15177;50.844;4.412;2022-12-18T15:41:02;2.00;99.90
27797;DHT22;15177;50.844;4.412;2022-12-18T15:43:29;2.00;99.90
27797;DHT22;15177;50.844;4.412;2022-12-18T15:46:11;2.10;99.90
27797;DHT22;15177;50.844;4.412;2022-12-18T15:48:49;2.00;99.90
27797;DHT22;15177;50.844;4.412;2022-12-18T15:51:29;2.00;99.90
27797;DHT22;15177;50.844;4.412;2022-12-18T15:53:59;2.10;99.90
27797;DHT22;15177;50.844;4.412;2022-12-18T15:56:26;2.00;99.90
27797;DHT22;15177;50.844;4.412;2022-12-18T15:59:13;2.00;99.90
27797;DHT22;15177;50.844;4.412;2022-12-18T16:01:40;2.00;99.90
27797;DHT22;15177;50.844;4.412;2022-12-18T16:04:06;2.00;99.90
27797;DHT22;15177;50.844;4.412;2022-12-18T16:06:33;1.90;99.90
27797;DHT22;15177;50.844;4.412;2022-12-18T16:08:59;2.10;99.90
27797;DHT22;15177;50.844;4.412;2022-12-18T16:11:29;2.20;99.90
27797;DHT22;15177;50.844;4.412;2022-12-18T16:14:23;2.10;99.90
27797;DHT22;15177;50.844;4.412;2022-12-18T16:16:54;2.00;99.90
27797;DHT22;15177;50.844;4.412;2022-12-18T16:19:21;2.10;99.90
27797;DHT22;15177;50.844;4.412;2022-12-18T16:21:47;2.10;99.90
27797;DHT22;15177;50.844;4.412;2022-12-18T16:24:18;2.20;99.90
27797;DHT22;15177;50.844;4.412;2022-12-18T16:26:45;2.30;99.90
27797;DHT22;15177;50.844;4.412;2022-12-18T16:29:11;2.20;99.90
27797;DHT22;15177;50.844;4.412;2022-12-18T16:31:37;2.20;99.90
27797;DHT22;15177;50.844;4.412;2022-12-18T16:34:32;2.20;99.90
27797;DHT22;15177;50.844;4.412;2022-12-18T16:37:00;2.20;99.90
27797;DHT22;15177;50.844;4.412;2022-12-18T16:39:27;2.00;99.90
27797;DHT22;15177;50.844;4.412;2022-12-18T16:41:54;2.00;99.90
27797;DHT22;15177;50.844;4.412;2022-12-18T16:44:20;2.10;99.90
27797;DHT22;15177;50.844;4.412;2022-12-18T16:46:47;2.30;99.90
27797;DHT22;15177;50.844;4.412;2022-12-18T16:49:17;2.20;99.90
27797;DHT22;15177;50.844;4.412;2022-12-18T16:51:45;2.30;99.90
27797;DHT22;15177;50.844;4.412;2022-12-18T16:54:11;2.20;99.90
27797;DHT22;15177;50.844;4.412;2022-12-18T16:56:36;2.20;99.90
27797;DHT22;15177;50.844;4.412;2022-12-18T16:59:03;2.30;99.90
27797;DHT22;15177;50.844;4.412;2022-12-18T17:01:31;2.40;99.90
27797;DHT22;15177;50.844;4.412;2022-12-18T17:04:00;2.50;99.90
27797;DHT22;15177;50.844;4.412;2022-12-18T17:06:29;2.40;99.90
27797;DHT22;15177;50.844;4.412;2022-12-18T17:11:23;2.40;99.90
27797;DHT22;15177;50.844;4.412;2022-12-18T17:13:49;2.40;99.90
27797;DHT22;15177;50.844;4.412;2022-12-18T17:16:15;2.50;99.90
27797;DHT22;15177;50.844;4.412;2022-12-18T17:18:42;2.50;99.90
27797;DHT22;15177;50.844;4.412;2022-12-18T17:21:09;2.50;99.90
27797;DHT22;15177;50.844;4.412;2022-12-18T17:23:37;2.60;99.90
27797;DHT22;15177;50.844;4.412;2022-12-18T17:26:04;2.80;99.90
27797;DHT22;15177;50.844;4.412;2022-12-18T17:28:31;2.80;99.90
27797;DHT22;15177;50.844;4.412;2022-12-18T17:30:58;3.00;99.90
27797;DHT22;15177;50.844;4.412;2022-12-18T17:33:23;2.80;99.90
27797;DHT22;15177;50.844;4.412;2022-12-18T17:35:50;2.80;99.90
27797;DHT22;15177;50.844;4.412;2022-12-18T17:38:17;2.70;99.90
27797;DHT22;15177;50.844;4.412;2022-12-18T17:40:43;2.80;99.90
27797;DHT22;15177;50.844;4.412;2022-12-18T17:43:10;2.80;99.90
27797;DHT22;15177;50.844;4.412;2022-12-18T17:45:40;2.80;99.90
27797;DHT22;15177;50.844;4.412;2022-12-18T17:48:08;2.80;99.90
27797;DHT22;15177;50.844;4.412;2022-12-18T17:50:35;2.50;99.90
27797;DHT22;15177;50.844;4.412;2022-12-18T17:53:02;2.40;99.90
27797;DHT22;15177;50.844;4.412;2022-12-18T17:55:29;2.50;99.90
27797;DHT22;15177;50.844;4.412;2022-12-18T17:57:54;2.50;99.90
27797;DHT22;15177;50.844;4.412;2022-12-18T18:00:21;2.60;99.90